Time;durP1;ratioP1;P1;durP2;ratioP2;P2;SDS_P1;SDS_P2;PMS_P1;PMS_P2;Temp;Humidity;BMP_temperature;BMP_pressure;BME280_temperature;BME280_humidity;BME280_pressure;Samples;Min_cycle;Max_cycle;Signal;HPM_P1;HPM_P2
2022/02/10 00:16:07;;;;;;;;;;;;;;;9.53;67.74;102007.09;4994606;28;106976;-49
2022/02/10 00:19:00;;;;;;;;;;;;;;;9.52;67.20;102008.97;4990456;28;108406;-49
2022/02/10 00:21:32;;;;;;;;;;;;;;;9.53;67.32;102009.78;4979196;28;102813;-48
2022/02/10 00:24:51;;;;;;;;;;;;;;;9.54;67.51;102016.88;4980290;27;102914;-48
2022/02/10 00:35:21;;;;;;;;;;;;;;;9.51;66.81;101993.72;4975370;28;102416;-49
2022/02/10 00:37:57;;;;;;;;;;;;;;;9.52;67.23;101998.09;4980061;28;102772;-49
2022/02/10 00:40:27;;;;;;;;;;;;;;;9.53;66.92;101993.50;4982327;28;108060;-48
2022/02/10 00:42:53;;;;;;;;;;;;;;;9.54;67.13;102000.56;4994400;28;104207;-49
2022/02/10 00:45:20;;;;;;;;;;;;;;;9.52;67.33;102003.53;4986079;28;102250;-49
2022/02/10 00:48:02;;;;;;;;;;;;;;;9.53;67.53;102004.38;4997423;28;102607;-49
2022/02/10 00:50:29;;;;;;;;;;;;;;;9.53;67.18;102007.09;4987693;28;104148;-49
2022/02/10 00:53:10;;;;;;;;;;;;;;;9.53;67.45;102004.38;4991354;28;102872;-48
2022/02/10 00:55:41;;;;;;;;;;;;;;;9.53;67.63;102004.38;4990991;28;102377;-49
2022/02/10 00:58:10;;;;;;;;;;;;;;;9.53;66.97;101998.94;4977589;28;102562;-49
2022/02/10 01:24:29;;;;;;;;;;;;;;;9.52;67.53;102002.69;4981317;28;102366;-49
2022/02/10 01:30:35;;;;;;;;;;;;;;;9.51;67.65;102012.72;4975726;28;102703;-49
2022/02/10 01:33:05;;;;;;;;;;;;;;;9.52;67.31;102017.13;4983537;28;103683;-48
2022/02/10 01:35:31;;;;;;;;;;;;;;;9.52;67.25;102013.56;4983846;27;103357;-49
2022/02/10 01:37:59;;;;;;;;;;;;;;;9.52;67.67;102016.28;4984679;28;102332;-49
2022/02/10 01:40:49;;;;;;;;;;;;;;;9.52;66.99;102002.69;4991267;28;102756;-49
2022/02/10 02:05:35;;;;;;;;;;;;;;;9.51;67.14;101990.16;4991168;28;102723;-48
2022/02/10 02:08:01;;;;;;;;;;;;;;;9.52;67.14;101997.25;4991956;28;102569;-49
2022/02/10 02:10:27;;;;;;;;;;;;;;;9.52;66.96;101997.25;4991965;28;102369;-49
2022/02/10 02:12:53;;;;;;;;;;;;;;;9.53;67.17;101998.94;4984483;28;102515;-48
2022/02/10 02:15:22;;;;;;;;;;;;;;;9.51;67.10;101999.13;4987732;28;104136;-49
2022/02/10 02:17:48;;;;;;;;;;;;;;;9.52;67.60;102005.41;4988271;28;104428;-48
2022/02/10 02:20:15;;;;;;;;;;;;;;;9.52;67.04;102002.69;4991530;27;102015;-49
2022/02/10 02:22:42;;;;;;;;;;;;;;;9.52;67.80;101999.97;4982439;28;102632;-49
2022/02/10 02:25:09;;;;;;;;;;;;;;;9.52;67.54;102002.69;4976916;28;104127;-48
2022/02/10 02:27:42;;;;;;;;;;;;;;;9.52;67.61;102005.41;4987879;28;102515;-49
2022/02/10 02:30:19;;;;;;;;;;;;;;;9.52;67.05;102008.13;4971925;28;103547;-49
2022/02/10 02:32:50;;;;;;;;;;;;;;;9.52;67.39;102008.13;4987246;28;102565;-49
2022/02/10 02:35:50;;;;;;;;;;;;;;;9.52;67.24;102013.56;4980278;28;103941;-48
2022/02/10 03:05:45;;;;;;;;;;;;;;;9.53;67.54;101985.34;4982267;28;102678;-48
2022/02/10 03:08:15;;;;;;;;;;;;;;;9.51;67.22;101987.44;4990127;28;103869;-48
2022/02/10 03:13:18;;;;;;;;;;;;;;;9.52;67.27;101992.66;4984587;28;103228;-48
2022/02/10 04:02:24;;;;;;;;;;;;;;;9.51;67.75;101979.28;4983328;28;103924;-49
2022/02/10 04:23:21;;;;;;;;;;;;;;;9.50;66.98;101994.78;4976463;27;103714;-49
2022/02/10 05:38:10;;;;;;;;;;;;;;;9.50;67.59;102015.69;4986436;28;104043;-50
2022/02/10 05:43:27;;;;;;;;;;;;;;;9.50;67.41;102015.69;4982791;28;102414;-49
2022/02/10 05:54:05;;;;;;;;;;;;;;;9.50;67.44;101994.78;4980951;28;102159;-49
2022/02/10 06:49:10;;;;;;;;;;;;;;;9.52;67.73;102021.72;4976192;28;102142;-49
2022/02/10 06:51:44;;;;;;;;;;;;;;;9.53;67.15;102031.53;4984137;28;102486;-49
2022/02/10 06:57:17;;;;;;;;;;;;;;;9.52;67.98;102021.72;4976132;28;103760;-49
2022/02/10 07:06:00;;;;;;;;;;;;;;;9.53;67.90;102016.06;4982046;28;103980;-49
2022/02/10 07:08:42;;;;;;;;;;;;;;;9.54;67.69;102008.72;4976546;28;102724;-49
2022/02/10 07:59:44;;;;;;;;;;;;;;;9.57;68.03;102017.25;4977114;28;103665;-50
2022/02/10 09:02:23;;;;;;;;;;;;;;;9.65;68.02;102024.22;4986716;28;102221;-49
2022/02/10 09:04:33;;;;;;;;;;;;;;;9.65;67.99;102024.22;4985780;28;103866;-49
2022/02/10 10:03:13;;;;;;;;;;;;;;;9.73;67.98;101972.22;4977484;28;102829;-49
2022/02/10 10:05:46;;;;;;;;;;;;;;;9.74;67.73;101971.19;4971531;27;102196;-49
2022/02/10 10:08:32;;;;;;;;;;;;;;;9.74;67.67;101968.47;4985542;28;103097;-49
2022/02/10 10:14:15;;;;;;;;;;;;;;;9.74;67.65;101968.47;4982717;28;102378;-48
2022/02/10 10:19:52;;;;;;;;;;;;;;;9.76;67.34;101966.31;4988242;28;103892;-49
2022/02/10 10:22:39;;;;;;;;;;;;;;;9.75;67.76;101970.13;4983898;28;102461;-49
2022/02/10 10:50:50;;;;;;;;;;;;;;;9.77;67.70;101940.81;4995981;28;102509;-49
2022/02/10 10:56:15;;;;;;;;;;;;;;;9.77;67.76;101924.50;4982055;28;102775;-48
2022/02/10 11:38:02;;;;;;;;;;;;;;;9.81;67.83;101884.91;4973477;28;107777;-49
2022/02/10 11:40:30;;;;;;;;;;;;;;;9.83;67.33;101879.22;4982992;27;102572;-49
2022/02/10 11:43:06;;;;;;;;;;;;;;;9.83;67.75;101879.22;4979324;28;105017;-49
2022/02/10 14:14:39;;;;;;;;;;;;;;;9.86;67.54;101901.31;4986409;28;102862;-49
2022/02/10 14:17:11;;;;;;;;;;;;;;;9.86;67.34;101905.94;4983670;28;102441;-49
2022/02/10 14:19:57;;;;;;;;;;;;;;;9.86;67.91;101906.75;4981802;28;102929;-50
2022/02/10 14:23:03;;;;;;;;;;;;;;;9.86;67.51;101906.75;4980157;28;103923;-49
2022/02/10 14:27:56;;;;;;;;;;;;;;;9.85;67.95;101907.81;4976398;28;103288;-49
2022/02/10 14:30:22;;;;;;;;;;;;;;;9.84;67.51;101906.19;4977606;28;102374;-50
2022/02/10 14:32:49;;;;;;;;;;;;;;;9.85;67.79;101905.13;4984560;28;103901;-50
2022/02/10 14:35:22;;;;;;;;;;;;;;;9.86;67.43;101905.94;4990503;28;102445;-49
2022/02/10 14:41:05;;;;;;;;;;;;;;;9.86;67.39;101906.75;4984783;28;103830;-49
2022/02/10 15:36:03;;;;;;;;;;;;;;;9.84;67.23;101900.75;4982186;28;102977;-50
2022/02/10 16:10:58;;;;;;;;;;;;;;;9.84;67.46;101903.47;4980540;28;107957;-49
2022/02/10 16:21:09;;;;;;;;;;;;;;;9.84;67.54;101908.91;4979681;28;104036;-50
2022/02/10 16:23:35;;;;;;;;;;;;;;;9.84;67.68;101900.75;4990644;28;102358;-49
2022/02/10 16:26:13;;;;;;;;;;;;;;;9.84;68.19;101897.16;4978615;28;106767;-49
2022/02/10 16:28:41;;;;;;;;;;;;;;;9.85;67.87;101905.13;4988574;28;102328;-49
2022/02/10 16:31:08;;;;;;;;;;;;;;;9.84;68.02;101898.03;4989636;28;104030;-49
2022/02/10 16:33:37;;;;;;;;;;;;;;;9.85;68.05;101898.84;4984395;28;102609;-48
2022/02/10 16:36:05;;;;;;;;;;;;;;;9.85;68.15;101899.66;4992428;28;103500;-49
2022/02/10 16:38:31;;;;;;;;;;;;;;;9.84;68.02;101892.59;4983500;28;102509;-49
2022/02/10 16:40:57;;;;;;;;;;;;;;;9.84;67.73;101889.03;4981670;28;103941;-49
2022/02/10 16:43:24;;;;;;;;;;;;;;;9.84;67.92;101884.44;4984436;28;104069;-49
2022/02/10 16:45:50;;;;;;;;;;;;;;;9.85;67.47;101893.41;4989258;28;102423;-48
2022/02/10 16:48:16;;;;;;;;;;;;;;;9.84;67.84;101886.28;4984143;28;102175;-49
2022/02/10 16:50:45;;;;;;;;;;;;;;;9.83;68.33;101888.19;4983779;28;103790;-48
2022/02/10 16:53:13;;;;;;;;;;;;;;;9.84;67.84;101887.16;4988655;28;102083;-49
2022/02/10 16:58:18;;;;;;;;;;;;;;;9.84;68.28;101881.72;4976392;28;102586;-49
2022/02/10 17:14:09;;;;;;;;;;;;;;;9.84;67.63;101898.03;4987319;28;102256;-48
2022/02/10 17:43:21;;;;;;;;;;;;;;;9.84;68.50;101880.84;4981408;27;107165;-49
2022/02/10 17:53:38;;;;;;;;;;;;;;;9.84;68.18;101891.72;4981908;28;104225;-48
2022/02/10 17:56:05;;;;;;;;;;;;;;;9.83;67.63;101888.19;4979011;28;102864;-49
2022/02/10 17:58:32;;;;;;;;;;;;;;;9.83;68.14;101880.03;4975885;28;103059;-49
2022/02/10 18:00:59;;;;;;;;;;;;;;;9.84;67.75;101886.28;4983259;28;102738;-48
2022/02/10 18:03:26;;;;;;;;;;;;;;;9.84;67.74;101891.72;4974854;28;103934;-49
2022/02/10 18:08:41;;;;;;;;;;;;;;;9.83;67.63;101874.59;4982664;28;102864;-49
2022/02/10 18:11:43;;;;;;;;;;;;;;;9.83;68.45;101874.59;4982209;28;102661;-49
2022/02/10 18:14:09;;;;;;;;;;;;;;;9.83;68.01;101874.59;4977272;28;108255;-49
2022/02/10 18:16:42;;;;;;;;;;;;;;;9.84;68.18;101869.97;4981775;28;103739;-49
2022/02/10 18:24:39;;;;;;;;;;;;;;;9.83;67.93;101869.16;4979875;28;103895;-49
2022/02/10 19:09:54;;;;;;;;;;;;;;;9.83;68.07;101852.03;4982206;28;102903;-48
2022/02/10 19:12:28;;;;;;;;;;;;;;;9.83;67.99;101841.97;4982671;28;102572;-48
2022/02/10 19:14:57;;;;;;;;;;;;;;;9.82;67.89;101845.78;4982885;28;102273;-50
2022/02/10 19:17:24;;;;;;;;;;;;;;;9.83;68.16;101849.31;4987702;28;104109;-49
2022/02/10 19:19:51;;;;;;;;;;;;;;;9.83;67.69;101841.97;4982603;28;102088;-49
2022/02/10 19:22:18;;;;;;;;;;;;;;;9.83;68.17;101849.31;4989606;28;102603;-49
2022/02/10 19:24:45;;;;;;;;;;;;;;;9.84;68.42;101853.66;4989911;28;102957;-49
2022/02/10 19:27:11;;;;;;;;;;;;;;;9.83;67.80;101850.13;4975242;27;104035;-49
2022/02/10 19:29:39;;;;;;;;;;;;;;;9.83;68.34;101857.47;4981398;28;105383;-48
2022/02/10 19:32:06;;;;;;;;;;;;;;;9.83;68.33;101852.03;4985138;28;102335;-50
2022/02/10 19:34:35;;;;;;;;;;;;;;;9.83;68.17;101860.19;4990769;28;102467;-49
2022/02/10 19:37:01;;;;;;;;;;;;;;;9.82;68.54;101856.63;4990253;28;104002;-48
2022/02/10 19:39:27;;;;;;;;;;;;;;;9.82;68.41;101859.38;4981707;28;103769;-49
2022/02/10 19:41:55;;;;;;;;;;;;;;;9.82;67.92;101862.06;4988085;28;102608;-49
2022/02/10 19:44:21;;;;;;;;;;;;;;;9.82;68.19;101855.81;4989422;28;102726;-49
2022/02/10 19:46:48;;;;;;;;;;;;;;;9.81;68.14;101855.00;4977082;28;104103;-49
2022/02/10 19:49:20;;;;;;;;;;;;;;;9.81;67.73;101849.56;4989519;28;102283;-49
2022/02/10 19:51:47;;;;;;;;;;;;;;;9.81;68.29;101857.72;4985228;27;102346;-49
2022/02/10 19:54:15;;;;;;;;;;;;;;;9.82;68.04;101850.38;4988079;28;102533;-49
2022/02/10 19:56:41;;;;;;;;;;;;;;;9.82;68.17;101834.88;4982181;28;102982;-50
2022/02/10 19:59:13;;;;;;;;;;;;;;;9.82;68.60;101836.78;4982838;28;102823;-49
2022/02/10 20:01:40;;;;;;;;;;;;;;;9.81;68.26;101838.69;4986485;27;102678;-50
2022/02/10 20:04:10;;;;;;;;;;;;;;;9.81;67.99;101838.69;4987941;28;102461;-49
2022/02/10 20:06:36;;;;;;;;;;;;;;;9.81;68.28;101837.88;4985444;28;103903;-49
2022/02/10 20:09:03;;;;;;;;;;;;;;;9.81;67.98;101837.88;4991832;28;104090;-49
2022/02/10 20:11:30;;;;;;;;;;;;;;;9.81;68.52;101835.97;4975411;28;106780;-49
2022/02/10 20:13:56;;;;;;;;;;;;;;;9.80;67.96;101845.16;4981477;28;102922;-48
2022/02/10 20:16:22;;;;;;;;;;;;;;;9.81;68.31;101838.69;4986821;28;103905;-49
2022/02/10 20:18:49;;;;;;;;;;;;;;;9.81;68.16;101835.97;4985156;28;102709;-49
2022/02/10 20:21:16;;;;;;;;;;;;;;;9.81;67.82;101832.44;4987662;28;102737;-50
2022/02/10 20:23:42;;;;;;;;;;;;;;;9.81;68.03;101837.88;4988486;28;102846;-49
2022/02/10 20:26:09;;;;;;;;;;;;;;;9.81;68.29;101838.69;5017279;27;103911;-48
2022/02/10 20:28:35;;;;;;;;;;;;;;;9.80;68.33;101831.56;4987386;28;102628;-48
2022/02/10 20:31:01;;;;;;;;;;;;;;;9.81;68.55;101837.88;4980930;27;102623;-49
2022/02/10 20:33:29;;;;;;;;;;;;;;;9.81;67.88;101844.13;4987404;28;102669;-49
2022/02/10 20:35:58;;;;;;;;;;;;;;;9.81;68.54;101837.88;4993584;27;104153;-49
2022/02/10 20:38:27;;;;;;;;;;;;;;;9.80;68.05;101839.72;4973341;28;102286;-48
2022/02/10 20:41:03;;;;;;;;;;;;;;;9.81;68.29;101835.97;4988558;28;102394;-49
2022/02/10 20:43:29;;;;;;;;;;;;;;;9.81;68.22;101832.44;4976169;28;102742;-49
2022/02/10 20:45:59;;;;;;;;;;;;;;;9.80;68.38;101831.56;4985863;28;104241;-49
2022/02/10 20:48:28;;;;;;;;;;;;;;;9.82;68.08;101834.06;4985766;28;102453;-48
2022/02/10 20:50:56;;;;;;;;;;;;;;;9.81;67.84;101829.72;4973221;28;103823;-49
2022/02/10 20:53:24;;;;;;;;;;;;;;;9.81;68.18;101832.44;4996765;28;102724;-49
2022/02/10 20:55:53;;;;;;;;;;;;;;;9.81;68.03;101827.00;4991430;28;104041;-48
2022/02/10 20:58:21;;;;;;;;;;;;;;;9.80;67.74;101817.97;4982198;28;102365;-49
2022/02/10 21:00:49;;;;;;;;;;;;;;;9.81;67.75;101816.13;4983171;28;103564;-48
2022/02/10 21:03:15;;;;;;;;;;;;;;;9.81;68.02;101822.38;4985582;28;102560;-49
2022/02/10 21:05:43;;;;;;;;;;;;;;;9.81;68.38;101816.13;4982289;28;103870;-50
2022/02/10 21:10:37;;;;;;;;;;;;;;;9.80;68.26;101809.00;4977914;28;102660;-49
2022/02/10 21:13:06;;;;;;;;;;;;;;;9.81;68.00;101807.97;4983060;28;102587;-49
2022/02/10 21:15:40;;;;;;;;;;;;;;;9.82;68.34;101809.59;4985115;27;104106;-48
2022/02/10 21:18:08;;;;;;;;;;;;;;;9.81;68.38;101808.78;4984655;28;102515;-49
2022/02/10 21:20:35;;;;;;;;;;;;;;;9.82;68.38;101802.25;4980079;28;103616;-50
2022/02/10 21:25:47;;;;;;;;;;;;;;;9.81;68.02;101795.19;4990103;28;104200;-49
2022/02/10 21:28:20;;;;;;;;;;;;;;;9.81;68.16;101797.91;4987380;28;102438;-50
2022/02/10 21:31:03;;;;;;;;;;;;;;;9.80;68.17;101781.81;5078237;27;102538;-50
2022/02/10 21:38:36;;;;;;;;;;;;;;;9.80;67.79;101790.78;5066275;27;104100;-50
2022/02/10 22:20:48;;;;;;;;;;;;;;;9.81;68.29;101754.41;5060094;27;102173;-51
2022/02/10 22:23:20;;;;;;;;;;;;;;;9.80;68.45;101766.31;5063791;27;102385;-50
2022/02/10 22:25:48;;;;;;;;;;;;;;;9.80;68.38;101760.88;5066057;27;102507;-50
2022/02/10 22:28:29;;;;;;;;;;;;;;;9.80;68.57;101750.00;5053988;27;103692;-50
2022/02/10 22:31:26;;;;;;;;;;;;;;;9.80;68.04;101755.44;5062060;27;102753;-50
2022/02/10 22:36:19;;;;;;;;;;;;;;;9.81;68.28;101751.69;5062647;27;102440;-50
2022/02/10 22:38:48;;;;;;;;;;;;;;;9.80;68.11;101750.00;5059238;27;103856;-49
2022/02/10 22:41:14;;;;;;;;;;;;;;;9.80;68.36;101750.00;5054359;27;103395;-50
2022/02/10 22:43:42;;;;;;;;;;;;;;;9.80;68.29;101741.84;5039587;27;102427;-49
2022/02/10 22:46:11;;;;;;;;;;;;;;;9.81;68.44;101745.44;5050283;27;102746;-50
2022/02/10 22:48:37;;;;;;;;;;;;;;;9.80;68.08;101738.31;5033605;27;104104;-50
2022/02/10 22:51:05;;;;;;;;;;;;;;;9.80;68.46;101739.13;5044825;27;102545;-50
2022/02/10 22:53:31;;;;;;;;;;;;;;;9.80;68.60;101739.13;5044089;27;102851;-50
2022/02/10 22:55:57;;;;;;;;;;;;;;;9.81;68.00;101740.00;5061271;27;102516;-50
2022/02/10 22:58:23;;;;;;;;;;;;;;;9.80;68.86;101739.13;5053155;27;104288;-50
2022/02/10 23:00:50;;;;;;;;;;;;;;;9.80;68.52;101733.69;5048244;27;102775;-50
2022/02/10 23:03:17;;;;;;;;;;;;;;;9.82;68.25;101738.91;5048516;27;102303;-50
2022/02/10 23:05:43;;;;;;;;;;;;;;;9.81;68.66;101729.94;5045503;27;103095;-51
2022/02/10 23:08:11;;;;;;;;;;;;;;;9.79;68.40;101718.47;5051039;27;103892;-50
2022/02/10 23:10:49;;;;;;;;;;;;;;;9.81;68.18;101721.78;5046164;27;102410;-50
2022/02/10 23:13:16;;;;;;;;;;;;;;;9.79;68.48;101710.31;5046332;27;102469;-50
2022/02/10 23:15:43;;;;;;;;;;;;;;;9.79;68.00;101713.03;5051475;27;102561;-50
2022/02/10 23:18:10;;;;;;;;;;;;;;;9.79;68.62;101715.75;5051247;27;103092;-49
2022/02/10 23:20:38;;;;;;;;;;;;;;;9.80;68.62;101717.38;5046632;27;102128;-50
2022/02/10 23:23:05;;;;;;;;;;;;;;;9.81;68.11;101715.53;5041800;27;102422;-50
2022/02/10 23:25:33;;;;;;;;;;;;;;;9.80;68.11;101717.38;5045373;27;102876;-50
2022/02/10 23:27:59;;;;;;;;;;;;;;;9.80;68.18;101711.94;5057911;27;103989;-50
2022/02/10 23:30:25;;;;;;;;;;;;;;;9.80;68.11;101717.38;5042995;27;102654;-50
2022/02/10 23:32:55;;;;;;;;;;;;;;;9.79;68.49;101710.31;5049766;27;102278;-50
2022/02/10 23:38:24;;;;;;;;;;;;;;;9.79;68.15;101710.31;5020984;27;108010;-50
2022/02/10 23:43:36;;;;;;;;;;;;;;;9.79;68.42;101704.88;5043385;27;102271;-50
2022/02/10 23:46:03;;;;;;;;;;;;;;;9.80;67.92;101695.63;5044962;27;102397;-49
2022/02/10 23:48:31;;;;;;;;;;;;;;;9.80;68.24;101706.50;5049085;27;104060;-50
2022/02/10 23:50:57;;;;;;;;;;;;;;;9.79;68.08;101704.88;5045534;27;102163;-50
2022/02/10 23:53:23;;;;;;;;;;;;;;;9.79;68.55;101696.72;5039651;27;102404;-49
2022/02/10 23:55:53;;;;;;;;;;;;;;;9.78;68.28;101695.06;5041760;27;102700;-50
